createdAt,value
2016-12-08T00:00:56.803Z,90.34
2016-12-08T00:02:28.129Z,90.34
2016-12-08T00:03:59.329Z,90.44
2016-12-08T00:05:11.376Z,90.16
2016-12-08T00:06:42.125Z,89.87
2016-12-08T00:08:13.396Z,90.16
2016-12-08T00:09:44.754Z,90.44
2016-12-08T00:11:16.336Z,90.06
2016-12-08T00:12:51.335Z,89.78
2016-12-08T00:14:18.372Z,89.59
2016-12-08T00:15:51.908Z,90.06
2016-12-08T00:17:27.028Z,90.34
2016-12-08T00:18:58.397Z,90.16
2016-12-08T00:21:36.775Z,90.16
2016-12-08T00:23:04.282Z,89.59
2016-12-08T00:24:17.002Z,89.69
2016-12-08T00:25:50.014Z,89.69
2016-12-08T00:27:21.099Z,89.21
2016-12-08T00:28:54.339Z,89.78
2016-12-08T00:30:25.267Z,89.69
2016-12-08T00:31:56.145Z,89.12
2016-12-08T00:33:26.948Z,89.78
2016-12-08T00:34:59.270Z,89.87
2016-12-08T00:36:11.679Z,89.78
2016-12-08T00:37:42.419Z,89.4
2016-12-08T00:39:13.831Z,89.5
2016-12-08T00:42:18.094Z,89.78
2016-12-08T00:43:49.148Z,90.16
2016-12-08T00:45:19.892Z,90.63
2016-12-08T00:46:31.738Z,90.82
2016-12-08T00:48:02.909Z,91.29
2016-12-08T00:49:34.504Z,90.82
2016-12-08T00:51:05.223Z,91.01
2016-12-08T00:52:37.172Z,90.91
2016-12-08T00:54:02.875Z,91.48
2016-12-08T00:55:15.035Z,91.48
2016-12-08T00:56:45.752Z,90.91
2016-12-08T00:58:17.017Z,91.01
2016-12-08T00:59:48.132Z,90.44
2016-12-08T01:01:00.014Z,90.53
2016-12-08T01:02:25.607Z,89.97
2016-12-08T01:03:56.570Z,90.16
2016-12-08T01:05:29.038Z,89.87
2016-12-08T01:06:40.679Z,90.25
2016-12-08T01:08:12.020Z,90.06
2016-12-08T01:09:43.417Z,90.25
2016-12-08T01:11:14.269Z,90.34
2016-12-08T01:12:45.762Z,90.25
2016-12-08T01:14:16.831Z,90.16
2016-12-08T01:15:48.150Z,90.25
2016-12-08T01:17:00.166Z,90.44
2016-12-08T01:18:31.059Z,90.25
2016-12-08T01:20:02.448Z,89.97
2016-12-08T01:21:34.477Z,90.16
2016-12-08T01:23:05.709Z,89.59
2016-12-08T01:24:36.537Z,89.59
2016-12-08T01:26:07.883Z,89.69
2016-12-08T01:27:19.689Z,89.78
2016-12-08T01:28:50.422Z,90.06
2016-12-08T01:30:22.486Z,90.25
2016-12-08T01:31:53.541Z,90.44
2016-12-08T01:33:24.535Z,90.25
2016-12-08T01:34:55.313Z,90.25
2016-12-08T01:36:07.403Z,89.78
2016-12-08T01:37:38.442Z,89.4
2016-12-08T01:39:09.875Z,90.34
2016-12-08T01:40:40.818Z,90.53
2016-12-08T01:41:52.780Z,90.34
2016-12-08T01:43:23.583Z,90.25
2016-12-08T01:44:50.185Z,90.44
2016-12-08T01:50:27.942Z,90.44
2016-12-08T01:51:40.144Z,90.25
2016-12-08T01:53:10.974Z,90.44
2016-12-08T01:54:42.079Z,90.82
2016-12-08T01:56:12.944Z,90.63
2016-12-08T01:57:44.274Z,90.91
2016-12-08T01:58:55.810Z,90.72
2016-12-08T02:00:49.755Z,91.2
2016-12-08T02:02:01.327Z,90.82
2016-12-08T02:03:32.646Z,90.91
2016-12-08T02:05:03.639Z,90.53
2016-12-08T02:06:35.039Z,90.53
2016-12-08T02:08:06.353Z,91.67
2016-12-08T02:09:37.527Z,91.2
2016-12-08T02:11:08.756Z,91.01
2016-12-08T02:12:20.412Z,91.1
2016-12-08T02:13:51.568Z,90.25
2016-12-08T02:15:22.633Z,90.16
2016-12-08T02:16:53.481Z,90.63
2016-12-08T02:18:24.194Z,90.44
2016-12-08T02:19:36.059Z,90.82
2016-12-08T02:21:07.323Z,90.53
2016-12-08T02:22:38.122Z,90.63
2016-12-08T02:24:09.008Z,90.44
2016-12-08T02:25:39.743Z,90.16
2016-12-08T02:27:11.029Z,90.34
2016-12-08T02:28:22.593Z,89.97
2016-12-08T02:29:53.634Z,89.31
2016-12-08T02:31:24.509Z,90.16
2016-12-08T02:32:55.822Z,89.97
2016-12-08T02:34:26.590Z,89.97
2016-12-08T02:35:57.556Z,90.25
2016-12-08T02:37:09.024Z,89.59
2016-12-08T02:38:39.949Z,90.16
2016-12-08T02:40:10.676Z,89.87
2016-12-08T02:41:41.651Z,89.4
2016-12-08T02:43:12.707Z,89.59
2016-12-08T02:44:44.152Z,89.87
2016-12-08T02:45:56.000Z,89.31
2016-12-08T02:47:26.731Z,89.02
2016-12-08T02:48:57.673Z,89.78
2016-12-08T02:50:28.602Z,89.59
2016-12-08T02:51:54.555Z,89.78
2016-12-08T02:53:06.069Z,89.31
2016-12-08T02:54:36.760Z,89.78
2016-12-08T02:56:02.771Z,89.87
2016-12-08T02:57:14.252Z,90.34
2016-12-08T02:58:39.902Z,89.97
2016-12-08T02:59:51.408Z,90.44
2016-12-08T03:01:22.715Z,90.16
2016-12-08T03:02:53.682Z,89.97
2016-12-08T03:04:24.343Z,90.53
2016-12-08T03:05:55.437Z,90.25
2016-12-08T03:07:07.435Z,90.53
2016-12-08T03:08:38.532Z,90.63
2016-12-08T03:10:04.095Z,90.34
2016-12-08T03:11:15.596Z,90.44
2016-12-08T03:12:46.572Z,91.1
2016-12-08T03:14:17.334Z,90.63
2016-12-08T03:15:48.470Z,90.53
2016-12-08T03:17:19.396Z,90.44
2016-12-08T03:18:50.745Z,90.25
2016-12-08T03:20:02.282Z,90.06
2016-12-08T03:21:33.006Z,90.25
2016-12-08T03:23:03.958Z,89.97
2016-12-08T03:24:35.618Z,90.16
2016-12-08T03:26:06.454Z,90.91
2016-12-08T03:27:37.688Z,90.63
2016-12-08T03:28:49.126Z,90.25
2016-12-08T03:30:22.621Z,90.34
2016-12-08T03:31:53.320Z,90.16
2016-12-08T03:33:23.989Z,90.44
2016-12-08T03:34:55.338Z,89.97
2016-12-08T03:36:26.391Z,90.16
2016-12-08T03:37:57.102Z,89.97
2016-12-08T03:39:08.546Z,90.63
2016-12-08T03:40:39.550Z,90.63
2016-12-08T03:42:10.931Z,91.39
2016-12-08T03:43:41.640Z,91.29
2016-12-08T03:45:12.891Z,91.1
2016-12-08T03:46:44.004Z,91.67
2016-12-08T03:47:56.461Z,91.67
2016-12-08T03:49:27.168Z,91.48
2016-12-08T03:50:57.826Z,91.1
2016-12-08T03:52:28.484Z,91.39
2016-12-08T03:53:59.764Z,91.48
2016-12-08T03:55:30.487Z,91.1
2016-12-08T03:56:41.950Z,90.91
2016-12-08T03:58:12.685Z,91.39
2016-12-08T03:59:43.593Z,91.39
2016-12-08T04:01:14.553Z,91.67
2016-12-08T04:02:45.244Z,91.67
2016-12-08T04:03:57.124Z,91.1
2016-12-08T04:05:28.137Z,91.77
2016-12-08T04:06:59.038Z,91.86
2016-12-08T04:08:29.691Z,91.2
2016-12-08T04:10:00.447Z,91.29
2016-12-08T04:11:32.922Z,90.82
2016-12-08T04:12:44.380Z,91.1
2016-12-08T04:14:15.276Z,91.58
2016-12-08T04:15:46.369Z,91.39
2016-12-08T04:17:17.704Z,92.05
2016-12-08T04:18:48.427Z,91.58
2016-12-08T04:20:19.343Z,92.05
2016-12-08T04:21:31.118Z,92.14
2016-12-08T04:23:02.060Z,91.77
2016-12-08T04:24:32.850Z,91.77
2016-12-08T04:26:03.527Z,91.86
2016-12-08T04:27:34.487Z,91.86
2016-12-08T04:29:06.077Z,91.77
2016-12-08T04:30:17.696Z,91.39
2016-12-08T04:31:48.475Z,91.48
2016-12-08T04:33:19.287Z,91.77
2016-12-08T04:34:51.087Z,91.67
2016-12-08T04:36:16.613Z,92.33
2016-12-08T04:37:28.296Z,92.33
2016-12-08T04:38:59.329Z,92.71
2016-12-08T04:40:31.264Z,93.47
2016-12-08T04:42:02.323Z,92.9
2016-12-08T04:43:13.787Z,92.71
2016-12-08T04:44:44.941Z,92.61
2016-12-08T04:46:16.261Z,92.52
2016-12-08T04:47:47.059Z,92.43
2016-12-08T04:49:17.772Z,91.77
2016-12-08T04:50:48.466Z,91.48
2016-12-08T04:52:00.546Z,91.39
2016-12-08T04:53:31.199Z,91.29
2016-12-08T04:55:01.878Z,91.58
2016-12-08T04:56:32.620Z,91.1
2016-12-08T04:58:03.718Z,91.29
2016-12-08T04:59:34.737Z,91.96
2016-12-08T05:01:07.694Z,91.96
2016-12-08T05:02:19.138Z,92.38
2016-12-08T05:03:50.428Z,91.72
2016-12-08T05:05:21.225Z,91.39
2016-12-08T05:06:52.249Z,91.86
2016-12-08T05:08:22.950Z,91.67
2016-12-08T05:09:34.769Z,91.86
2016-12-08T05:11:05.861Z,91.67
2016-12-08T05:12:36.549Z,91.96
2016-12-08T05:14:07.817Z,91.48
2016-12-08T05:15:38.804Z,91.58
2016-12-08T05:17:09.518Z,92.05
2016-12-08T05:18:20.975Z,91.48
2016-12-08T05:19:51.654Z,91.86
2016-12-08T05:21:22.912Z,91.77
2016-12-08T05:22:53.631Z,91.67
2016-12-08T05:24:24.284Z,91.1
2016-12-08T05:25:35.764Z,91.2
2016-12-08T05:27:07.043Z,90.82
2016-12-08T05:28:37.816Z,92.43
2016-12-08T05:30:08.522Z,92.33
2016-12-08T05:31:39.223Z,92.52
2016-12-08T05:33:10.627Z,91.48
2016-12-08T05:34:22.513Z,90.82
2016-12-08T05:35:53.248Z,91.29
2016-12-08T05:37:23.940Z,91.1
2016-12-08T05:38:54.892Z,91.2
2016-12-08T05:40:25.897Z,90.72
2016-12-08T05:41:56.925Z,90.82
2016-12-08T05:43:29.888Z,90.63
2016-12-08T05:44:41.640Z,91.2
2016-12-08T05:46:12.297Z,91.01
2016-12-08T05:47:43.676Z,90.44
2016-12-08T05:49:14.743Z,90.53
2016-12-08T05:50:40.979Z,90.72
2016-12-08T05:51:52.546Z,91.1
2016-12-08T05:53:23.281Z,91.86
2016-12-08T05:54:54.300Z,91.67
2016-12-08T05:56:25.622Z,91.86
2016-12-08T05:57:37.510Z,92.43
2016-12-08T05:59:09.004Z,92.47
2016-12-08T06:00:40.088Z,92.52
2016-12-08T06:02:11.357Z,92.71
2016-12-08T06:03:42.066Z,92.43
2016-12-08T06:05:12.798Z,91.86
2016-12-08T06:06:24.363Z,91.67
2016-12-08T06:07:55.583Z,91.1
2016-12-08T06:09:26.819Z,91.2
2016-12-08T06:10:57.802Z,90.91
2016-12-08T06:12:28.891Z,91.1
2016-12-08T06:13:59.808Z,90.72
2016-12-08T06:15:11.361Z,90.91
2016-12-08T06:16:43.646Z,91.2
2016-12-08T06:18:14.560Z,91.77
2016-12-08T06:19:45.807Z,92.61
2016-12-08T06:21:16.843Z,92.43
2016-12-08T06:22:47.770Z,92.8
2016-12-08T06:24:18.779Z,92.24
2016-12-08T06:25:30.490Z,92.47
2016-12-08T06:27:01.487Z,92.38
2016-12-08T06:28:32.256Z,92.85
2016-12-08T06:30:03.027Z,92.57
2016-12-08T06:31:37.320Z,92.57
2016-12-08T06:33:08.765Z,92.66
2016-12-08T06:34:39.524Z,92.19
2016-12-08T06:35:51.193Z,92.1
2016-12-08T06:37:22.352Z,91.81
2016-12-08T06:38:53.396Z,91.58
2016-12-08T06:40:24.459Z,91.15
2016-12-08T06:41:55.555Z,91.29
2016-12-08T06:43:27.250Z,91.62
2016-12-08T06:44:38.719Z,91.43
2016-12-08T06:46:09.695Z,91.2
2016-12-08T06:47:40.761Z,91.29
2016-12-08T06:49:11.939Z,91.01
2016-12-08T06:50:42.573Z,91.53
2016-12-08T06:52:13.310Z,91.43
2016-12-08T06:53:25.373Z,91.05
2016-12-08T06:54:56.544Z,90.72
2016-12-08T06:56:27.272Z,90.77
2016-12-08T06:57:58.423Z,91.24
2016-12-08T06:59:29.833Z,90.82
2016-12-08T07:00:56.534Z,90.53
2016-12-08T07:02:08.256Z,91.39
2016-12-08T07:03:33.793Z,90.82
2016-12-08T07:04:45.278Z,90.91
2016-12-08T07:06:16.279Z,90.34
2016-12-08T07:07:47.256Z,90.34
2016-12-08T07:09:13.511Z,90.91
2016-12-08T07:10:24.988Z,90.25
2016-12-08T07:11:55.700Z,90.16
2016-12-08T07:13:27.726Z,89.5
2016-12-08T07:14:59.197Z,89.69
2016-12-08T07:16:30.190Z,90.06
2016-12-08T07:17:42.138Z,89.87
2016-12-08T07:19:13.115Z,90.06
2016-12-08T07:20:43.769Z,89.97
2016-12-08T07:22:14.739Z,89.97
2016-12-08T07:23:46.159Z,90.06
2016-12-08T07:25:17.158Z,89.87
2016-12-08T07:26:28.808Z,89.4
2016-12-08T07:28:00.223Z,89.78
2016-12-08T07:29:31.727Z,90.16
2016-12-08T07:31:03.811Z,90.25
2016-12-08T07:32:34.918Z,90.44
2016-12-08T07:34:05.656Z,89.97
2016-12-08T07:35:37.048Z,90.44
2016-12-08T07:36:48.879Z,90.34
2016-12-08T07:38:19.961Z,90.82
2016-12-08T07:39:50.865Z,90.82
2016-12-08T07:41:16.619Z,91.1
2016-12-08T07:43:57.112Z,91.39
2016-12-08T07:45:28.182Z,92.24
2016-12-08T07:46:58.865Z,93.28
2016-12-08T07:48:10.877Z,93.56
2016-12-08T07:49:41.667Z,93.47
2016-12-08T07:51:12.851Z,93.85
2016-12-08T07:52:38.627Z,94.23
2016-12-08T07:53:50.410Z,94.13
2016-12-08T07:55:21.349Z,94.13
2016-12-08T07:56:52.898Z,93.94
2016-12-08T07:58:23.547Z,93.28
2016-12-08T07:59:54.327Z,93.47
2016-12-08T08:01:27.429Z,93.75
2016-12-08T08:02:39.149Z,93.28
2016-12-08T08:04:10.916Z,93.66
2016-12-08T08:05:42.230Z,92.9
2016-12-08T08:07:12.975Z,92.99
2016-12-08T08:08:43.636Z,92.52
2016-12-08T08:10:14.901Z,92.52
2016-12-08T08:11:47.234Z,92.33
2016-12-08T08:12:59.137Z,91.77
2016-12-08T08:14:29.811Z,91.77
2016-12-08T08:16:00.774Z,91.48
2016-12-08T08:17:31.720Z,91.39
2016-12-08T08:19:02.686Z,91.39
2016-12-08T08:20:33.577Z,90.63
2016-12-08T08:21:45.096Z,90.34
2016-12-08T08:23:16.332Z,89.31
2016-12-08T08:24:47.040Z,89.59
2016-12-08T08:26:17.747Z,89.12
2016-12-08T08:27:48.487Z,89.31
2016-12-08T08:29:20.030Z,89.4
2016-12-08T08:30:32.630Z,89.21
2016-12-08T08:32:03.714Z,89.12
2016-12-08T08:33:34.642Z,88.74
2016-12-08T08:35:05.586Z,88.83
2016-12-08T08:36:36.565Z,88.93
2016-12-08T08:38:07.623Z,89.12
2016-12-08T08:39:19.103Z,89.4
2016-12-08T08:40:50.072Z,89.31
2016-12-08T08:42:21.040Z,89.12
2016-12-08T08:43:51.791Z,88.74
2016-12-08T08:45:23.221Z,88.64
2016-12-08T08:49:05.447Z,89.5
2016-12-08T08:50:36.853Z,89.97
2016-12-08T08:52:08.077Z,89.31
2016-12-08T08:53:38.867Z,89.31
2016-12-08T08:54:50.384Z,88.45
2016-12-08T08:56:21.721Z,88.55
2016-12-08T08:57:52.696Z,89.02
2016-12-08T08:59:23.846Z,88.55
2016-12-08T09:00:54.777Z,88.36
2016-12-08T09:02:25.543Z,89.69
2016-12-08T09:03:57.046Z,89.31
2016-12-08T09:05:08.484Z,89.78
2016-12-08T09:06:39.751Z,89.78
2016-12-08T09:08:10.448Z,90.16
2016-12-08T09:09:42.108Z,90.44
2016-12-08T09:11:12.773Z,90.63
2016-12-08T09:12:24.230Z,90.25
2016-12-08T09:13:55.247Z,90.44
2016-12-08T09:15:26.216Z,90.53
2016-12-08T09:16:56.929Z,90.44
2016-12-08T09:18:27.947Z,90.53
2016-12-08T09:19:58.860Z,90.63
2016-12-08T09:21:10.891Z,90.44
2016-12-08T09:22:41.910Z,90.16
2016-12-08T09:24:12.863Z,90.25
2016-12-08T09:25:43.732Z,90.06
2016-12-08T09:27:14.925Z,90.34
2016-12-08T09:28:46.160Z,90.63
2016-12-08T09:29:57.701Z,90.91
2016-12-08T09:31:28.531Z,91.01
2016-12-08T09:33:02.172Z,91.01
2016-12-08T09:34:33.304Z,91.1
2016-12-08T09:36:04.037Z,91.48
2016-12-08T09:37:34.729Z,91.77
2016-12-08T09:39:07.228Z,91.67
2016-12-08T09:40:38.158Z,91.48
2016-12-08T09:41:49.708Z,90.91
2016-12-08T09:43:20.378Z,91.39
2016-12-08T09:44:51.306Z,91.58
2016-12-08T09:46:22.301Z,90.91
2016-12-08T09:47:53.031Z,91.77
2016-12-08T09:49:04.974Z,91.01
2016-12-08T09:50:35.965Z,91.2
2016-12-08T09:52:07.053Z,91.2
2016-12-08T09:53:37.740Z,90.91
2016-12-08T09:55:08.425Z,90.91
2016-12-08T09:56:39.404Z,91.01
2016-12-08T09:57:51.166Z,91.01
2016-12-08T09:59:22.014Z,90.82
2016-12-08T10:00:52.735Z,90.63
2016-12-08T10:02:24.059Z,90.82
2016-12-08T10:03:55.219Z,91.01
2016-12-08T10:05:26.198Z,91.01
2016-12-08T10:06:37.693Z,91.86
2016-12-08T10:08:08.617Z,91.77
2016-12-08T10:09:39.339Z,91.48
2016-12-08T10:11:10.810Z,90.72
2016-12-08T10:12:41.742Z,91.29
2016-12-08T10:14:13.543Z,90.82
2016-12-08T10:15:25.036Z,90.16
2016-12-08T10:16:55.826Z,89.87
2016-12-08T10:18:26.484Z,90.25
2016-12-08T10:19:57.515Z,90.82
2016-12-08T10:21:28.235Z,90.72
2016-12-08T10:22:40.201Z,90.53
2016-12-08T10:24:11.480Z,90.82
2016-12-08T10:25:42.502Z,90.44
2016-12-08T10:27:13.186Z,91.39
2016-12-08T10:28:44.216Z,90.44
2016-12-08T10:30:14.926Z,90.53
2016-12-08T10:31:27.379Z,90.01
2016-12-08T10:32:58.049Z,90.01
2016-12-08T10:34:29.608Z,89.63
2016-12-08T10:36:00.326Z,90.06
2016-12-08T10:37:31.277Z,89.97
2016-12-08T10:39:02.687Z,90.16
2016-12-08T10:40:14.472Z,90.16
2016-12-08T10:41:40.257Z,89.59
2016-12-08T10:43:11.256Z,90.16
2016-12-08T10:44:41.968Z,89.97
2016-12-08T10:45:53.442Z,90.16
2016-12-08T10:47:24.965Z,90.53
2016-12-08T10:48:55.956Z,90.25
2016-12-08T10:50:26.752Z,90.63
2016-12-08T10:51:57.443Z,90.63
2016-12-08T10:53:09.090Z,90.25
2016-12-08T10:54:40.352Z,90.25
2016-12-08T10:56:11.668Z,90.16
2016-12-08T10:57:42.507Z,89.4
2016-12-08T10:59:13.302Z,89.5
2016-12-08T11:00:44.731Z,89.5
2016-12-08T11:01:56.578Z,89.78
2016-12-08T11:03:49.259Z,89.78
2016-12-08T11:05:00.888Z,89.59
2016-12-08T11:06:31.922Z,89.31
2016-12-08T11:08:03.098Z,89.69
2016-12-08T11:09:34.326Z,89.59
2016-12-08T11:11:00.377Z,89.69
2016-12-08T11:12:12.141Z,90.25
2016-12-08T11:13:42.924Z,89.97
2016-12-08T11:15:13.654Z,89.59
2016-12-08T11:16:44.623Z,89.78
2016-12-08T11:17:56.429Z,90.16
2016-12-08T11:19:27.356Z,91.29
2016-12-08T11:20:58.199Z,91.58
2016-12-08T11:22:29.330Z,92.43
2016-12-08T11:24:00.331Z,91.77
2016-12-08T11:25:31.251Z,92.24
2016-12-08T11:26:42.779Z,92.61
2016-12-08T11:28:13.430Z,93.75
2016-12-08T11:29:44.409Z,94.23
2016-12-08T11:31:15.624Z,94.42
2016-12-08T11:32:46.290Z,95.26
2016-12-08T11:33:57.977Z,94.79
2016-12-08T11:35:29.577Z,94.7
2016-12-08T11:37:01.770Z,94.89
2016-12-08T11:38:32.618Z,94.79
2016-12-08T11:39:58.267Z,94.23
2016-12-08T11:41:10.569Z,93.94
2016-12-08T11:42:41.922Z,93.37
2016-12-08T11:44:13.083Z,93.18
2016-12-08T11:45:44.247Z,93.37
2016-12-08T11:47:16.354Z,93.56
2016-12-08T11:48:47.870Z,93.47
2016-12-08T11:50:19.497Z,93.13
2016-12-08T11:51:31.498Z,92.71
2016-12-08T11:53:02.870Z,92.76
2016-12-08T11:54:28.559Z,92.94
2016-12-08T11:55:40.161Z,92.47
2016-12-08T11:57:11.190Z,92.29
2016-12-08T11:58:44.439Z,92.43
2016-12-08T12:00:15.137Z,92.33
2016-12-08T12:01:45.783Z,91.77
2016-12-08T12:02:57.720Z,91.86
2016-12-08T12:04:29.843Z,91.67
2016-12-08T12:05:55.552Z,91.48
2016-12-08T12:07:07.072Z,90.82
2016-12-08T12:08:37.895Z,90.82
2016-12-08T12:10:09.564Z,90.91
2016-12-08T12:11:41.278Z,90.91
2016-12-08T12:13:11.944Z,89.97
2016-12-08T12:14:42.741Z,89.87
2016-12-08T12:16:13.766Z,90.34
2016-12-08T12:17:25.892Z,89.59
2016-12-08T12:18:56.607Z,89.12
2016-12-08T12:20:27.622Z,89.12
2016-12-08T12:21:58.906Z,88.93
2016-12-08T12:23:30.248Z,88.93
2016-12-08T12:25:00.987Z,88.93
2016-12-08T12:26:12.554Z,88.83
2016-12-08T12:27:43.590Z,88.83
2016-12-08T12:29:14.505Z,88.83
2016-12-08T12:30:45.232Z,89.02
2016-12-08T12:32:16.497Z,88.07
2016-12-08T12:33:49.743Z,88.55
2016-12-08T12:35:01.315Z,88.17
2016-12-08T12:36:27.512Z,88.45
2016-12-08T12:37:58.385Z,88.36
2016-12-08T12:39:29.378Z,89.31
2016-12-08T12:40:41.591Z,88.36
2016-12-08T12:42:12.418Z,88.74
2016-12-08T12:43:43.108Z,88.93
2016-12-08T12:45:14.131Z,88.64
2016-12-08T12:46:45.530Z,88.64
2016-12-08T12:48:16.916Z,88.64
2016-12-08T12:49:28.457Z,88.93
2016-12-08T12:50:59.536Z,88.83
2016-12-08T12:52:30.236Z,88.93
2016-12-08T12:54:01.235Z,89.02
2016-12-08T12:55:32.055Z,88.74
2016-12-08T12:57:03.573Z,89.4
2016-12-08T12:58:15.044Z,88.74
2016-12-08T12:59:45.715Z,88.55
2016-12-08T13:01:16.441Z,88.83
2016-12-08T13:02:47.394Z,88.17
2016-12-08T13:04:18.331Z,88.55
2016-12-08T13:05:29.804Z,88.45
2016-12-08T13:07:00.622Z,88.74
2016-12-08T13:08:31.608Z,88.55
2016-12-08T13:09:58.459Z,87.88
2016-12-08T13:11:09.977Z,88.64
2016-12-08T13:12:43.359Z,88.31
2016-12-08T13:14:14.316Z,88.64
2016-12-08T13:15:45.022Z,89.06
2016-12-08T13:17:15.760Z,88.4
2016-12-08T13:18:46.575Z,88.78
2016-12-08T13:20:18.505Z,88.59
2016-12-08T13:21:30.019Z,88.4
2016-12-08T13:23:01.135Z,88.31
2016-12-08T13:24:31.780Z,88.87
2016-12-08T13:26:03.123Z,88.87
2016-12-08T13:27:34.189Z,88.68
2016-12-08T13:29:05.282Z,88.4
2016-12-08T13:30:16.813Z,88.49
2016-12-08T13:31:48.100Z,88.12
2016-12-08T13:33:18.753Z,88.12
2016-12-08T13:34:49.445Z,87.84
2016-12-08T13:36:20.150Z,87.84
2016-12-08T13:37:31.958Z,87.84
2016-12-08T13:39:02.942Z,88.49
2016-12-08T13:40:33.615Z,88.78
2016-12-08T13:42:04.398Z,88.59
2016-12-08T13:43:35.467Z,88.93
2016-12-08T13:45:06.397Z,88.55
2016-12-08T13:46:18.076Z,88.4
2016-12-08T13:47:48.845Z,88.78
2016-12-08T13:49:19.844Z,88.4
2016-12-08T13:50:50.557Z,88.21
2016-12-08T13:52:21.217Z,88.4
2016-12-08T13:53:53.875Z,88.49
2016-12-08T13:55:06.081Z,87.65
2016-12-08T13:56:36.786Z,87.74
2016-12-08T13:58:07.661Z,88.02
2016-12-08T13:59:38.750Z,88.12
2016-12-08T14:01:09.976Z,87.93
2016-12-08T14:02:40.686Z,87.84
2016-12-08T14:04:13.633Z,87.74
2016-12-08T14:05:25.098Z,88.12
2016-12-08T14:06:56.044Z,87.65
2016-12-08T14:08:27.057Z,88.12
2016-12-08T14:09:58.185Z,88.12
2016-12-08T14:11:23.768Z,88.12
2016-12-08T14:12:35.597Z,88.4
2016-12-08T14:14:06.741Z,88.31
2016-12-08T14:15:37.495Z,88.59
2016-12-08T14:17:08.504Z,88.59
2016-12-08T14:18:20.217Z,88.12
2016-12-08T14:19:50.944Z,88.31
2016-12-08T14:21:21.688Z,88.12
2016-12-08T14:22:52.676Z,88.4
2016-12-08T14:24:24.182Z,88.59
2016-12-08T14:25:55.209Z,88.4
2016-12-08T14:27:06.773Z,88.12
2016-12-08T14:28:37.564Z,88.68
2016-12-08T14:30:08.609Z,88.78
2016-12-08T14:31:39.817Z,88.49
2016-12-08T14:33:10.753Z,88.78
2016-12-08T14:34:43.048Z,88.4
2016-12-08T14:36:14.583Z,88.59
2016-12-08T14:37:26.451Z,88.97
2016-12-08T14:38:57.777Z,89.06
2016-12-08T14:40:28.813Z,88.78
2016-12-08T14:42:00.742Z,88.49
2016-12-08T14:43:31.799Z,88.26
2016-12-08T14:45:02.592Z,89.16
2016-12-08T14:46:14.317Z,88.64
2016-12-08T14:47:45.340Z,88.45
2016-12-08T14:49:16.072Z,89.4
2016-12-08T14:50:47.162Z,89.69
2016-12-08T14:52:18.080Z,89.31
2016-12-08T14:53:49.857Z,89.5
2016-12-08T14:55:02.252Z,89.78
2016-12-08T14:56:33.361Z,89.59
2016-12-08T14:58:05.527Z,89.69
2016-12-08T14:59:31.722Z,90.06
2016-12-08T15:01:03.204Z,89.59
2016-12-08T15:02:14.777Z,90.06
2016-12-08T15:03:45.464Z,89.97
2016-12-08T15:05:17.385Z,90.25
2016-12-08T15:06:48.214Z,90.25
2016-12-08T15:08:18.922Z,90.25
2016-12-08T15:09:49.980Z,90.34
2016-12-08T15:11:01.498Z,90.44
2016-12-08T15:12:32.830Z,89.73
2016-12-08T15:14:03.522Z,90.01
2016-12-08T15:15:34.664Z,90.34
2016-12-08T15:17:01.145Z,89.54
2016-12-08T15:18:12.852Z,89.87
2016-12-08T15:19:43.965Z,89.97
2016-12-08T15:21:15.045Z,90.39
2016-12-08T15:22:46.058Z,89.82
2016-12-08T15:23:58.072Z,90.11
2016-12-08T15:25:29.019Z,89.73
2016-12-08T15:27:00.171Z,89.92
2016-12-08T15:28:31.795Z,89.63
2016-12-08T15:30:02.711Z,89.35
2016-12-08T15:31:33.396Z,89.82
2016-12-08T15:33:05.762Z,90.25
2016-12-08T15:34:39.380Z,90.53
2016-12-08T15:35:50.964Z,90.53
2016-12-08T15:37:16.457Z,90.2
2016-12-08T15:38:47.135Z,89.73
2016-12-08T15:40:19.759Z,89.63
2016-12-08T15:41:31.541Z,89.63
2016-12-08T15:43:02.832Z,89.82
2016-12-08T15:44:34.278Z,89.44
2016-12-08T15:46:06.553Z,89.54
2016-12-08T15:47:38.753Z,89.44
2016-12-08T15:49:10.022Z,89.92
2016-12-08T15:50:45.265Z,89.73
2016-12-08T15:52:21.633Z,89.63
2016-12-08T15:54:17.356Z,89.44
2016-12-08T15:55:29.163Z,89.63
2016-12-08T15:57:01.094Z,89.92
2016-12-08T15:58:33.382Z,89.82
2016-12-08T16:00:04.625Z,89.82
2016-12-08T16:01:39.284Z,89.82
2016-12-08T16:03:11.192Z,90.01
2016-12-08T16:04:42.289Z,89.73
2016-12-08T16:06:13.859Z,89.73
2016-12-08T16:07:44.554Z,89.82
2016-12-08T16:09:15.638Z,89.82
2016-12-08T16:10:27.439Z,90.01
2016-12-08T16:11:58.386Z,90.01
2016-12-08T16:13:29.118Z,89.63
2016-12-08T16:15:00.127Z,89.63
2016-12-08T16:16:31.338Z,89.92
2016-12-08T16:18:02.544Z,89.44
2016-12-08T16:18:51.836Z,90.01
2016-12-08T16:20:02.912Z,89.92
2016-12-08T16:21:14.399Z,88.68
2016-12-08T16:22:28.010Z,89.54
2016-12-08T16:23:55.368Z,89.73
2016-12-08T16:25:07.146Z,89.44
2016-12-08T16:26:21.486Z,89.16
2016-12-08T16:27:32.888Z,89.16
2016-12-08T16:28:46.059Z,89.63
2016-12-08T16:30:13.844Z,89.16
2016-12-08T16:31:40.507Z,88.97
2016-12-08T16:32:53.472Z,88.68
2016-12-08T16:34:05.156Z,88.97
2016-12-08T16:35:18.413Z,88.78
2016-12-08T16:36:33.342Z,88.49
2016-12-08T16:37:47.148Z,88.31
2016-12-08T16:38:58.673Z,88.68
2016-12-08T16:40:10.792Z,88.59
2016-12-08T16:41:54.190Z,89.06
2016-12-08T16:43:06.061Z,89.16
2016-12-08T16:44:17.293Z,88.97
2016-12-08T16:45:28.611Z,88.87
2016-12-08T16:46:39.841Z,89.25
2016-12-08T16:47:51.031Z,88.97
2016-12-08T16:49:03.010Z,89.06
2016-12-08T16:50:14.092Z,89.16
2016-12-08T16:51:25.164Z,89.16
2016-12-08T16:52:36.386Z,88.59
2016-12-08T16:53:47.391Z,88.49
2016-12-08T16:55:21.313Z,88.68
2016-12-08T16:56:32.955Z,88.59
2016-12-08T16:57:44.067Z,89.16
2016-12-08T16:58:55.213Z,88.97
2016-12-08T17:00:06.655Z,88.78
2016-12-08T17:01:17.844Z,88.78
2016-12-08T17:02:31.079Z,89.44
2016-12-08T17:03:42.307Z,89.35
2016-12-08T17:04:53.675Z,89.82
2016-12-08T17:06:04.953Z,89.06
2016-12-08T17:07:15.936Z,88.87
2016-12-08T17:08:27.426Z,88.97
2016-12-08T17:09:38.658Z,88.59
2016-12-08T17:10:49.823Z,88.68
2016-12-08T17:12:00.796Z,88.4
2016-12-08T17:13:11.977Z,88.78
2016-12-08T17:14:23.246Z,89.16
2016-12-08T17:15:34.601Z,88.97
2016-12-08T17:16:46.875Z,89.35
2016-12-08T17:17:58.242Z,89.06
2016-12-08T17:19:10.842Z,88.87
2016-12-08T17:20:28.342Z,89.54
2016-12-08T17:21:47.241Z,89.06
2016-12-08T17:23:02.473Z,88.68
2016-12-08T17:24:15.849Z,88.97
2016-12-08T17:25:31.912Z,88.49
2016-12-08T17:26:51.249Z,88.49
2016-12-08T17:28:26.926Z,88.4
2016-12-08T17:30:26.387Z,88.97
2016-12-08T17:31:58.620Z,88.31
2016-12-08T17:33:31.457Z,88.68
2016-12-08T17:35:02.901Z,88.4
2016-12-08T17:36:36.817Z,88.49
2016-12-08T17:38:10.402Z,88.4
2016-12-08T17:39:44.240Z,88.68
2016-12-08T17:41:16.837Z,88.31
2016-12-08T17:42:51.892Z,88.12
2016-12-08T17:44:24.473Z,87.55
2016-12-08T17:45:52.030Z,88.4
2016-12-08T17:47:03.806Z,88.4
2016-12-08T17:48:35.936Z,88.4
2016-12-08T17:50:07.708Z,88.31
2016-12-08T17:53:45.983Z,88.78
2016-12-08T17:55:16.844Z,88.4
2016-12-08T17:56:48.380Z,88.59
2016-12-08T17:58:00.921Z,88.87
2016-12-08T17:59:32.320Z,88.49
2016-12-08T18:00:58.375Z,88.59
2016-12-08T18:02:10.916Z,88.59
2016-12-08T18:03:43.636Z,88.31
2016-12-08T18:05:15.483Z,88.21
2016-12-08T18:06:46.622Z,88.4
2016-12-08T18:08:18.915Z,89.06
2016-12-08T18:09:53.248Z,88.78
2016-12-08T18:11:26.038Z,88.12
2016-12-08T18:12:57.311Z,88.31
2016-12-08T18:14:29.300Z,88.59
2016-12-08T18:16:00.890Z,88.02
2016-12-08T18:17:32.591Z,88.12
2016-12-08T18:19:04.909Z,88.12
2016-12-08T18:20:36.331Z,87.55
2016-12-08T18:21:48.338Z,87.46
2016-12-08T18:23:19.680Z,88.21
2016-12-08T18:24:50.834Z,87.55
2016-12-08T18:26:22.081Z,87.84
2016-12-08T18:27:54.818Z,88.02
2016-12-08T18:29:26.677Z,87.74
2016-12-08T18:30:59.297Z,87.74
2016-12-08T18:32:32.086Z,87.17
2016-12-08T18:33:59.128Z,87.08
2016-12-08T18:35:10.673Z,86.89
2016-12-08T18:36:41.940Z,87.55
2016-12-08T18:38:16.307Z,87.65
2016-12-08T18:39:47.910Z,87.55
2016-12-08T18:41:17.879Z,88.12
2016-12-08T18:42:48.835Z,87.84
2016-12-08T18:44:00.627Z,88.02
2016-12-08T18:45:32.332Z,87.84
2016-12-08T18:46:58.349Z,87.65
2016-12-08T18:48:29.388Z,87.84
2016-12-08T18:49:41.199Z,87.84
2016-12-08T18:51:13.872Z,88.59
2016-12-08T18:52:45.476Z,88.4